sensor_id;sensor_type;location;lat;lon;timestamp;P1;durP1;ratioP1;P2;durP2;ratioP2
39410;SDS011;26579;43.238;23.124;2023-12-14T00:01:33;13.10;;;7.78;;
39410;SDS011;26579;43.238;23.124;2023-12-14T00:03:59;15.13;;;8.73;;
39410;SDS011;26579;43.238;23.124;2023-12-14T00:06:24;12.38;;;6.40;;
39410;SDS011;26579;43.238;23.124;2023-12-14T00:08:50;8.88;;;5.15;;
39410;SDS011;26579;43.238;23.124;2023-12-14T00:11:16;7.78;;;4.45;;
39410;SDS011;26579;43.238;23.124;2023-12-14T00:13:42;8.95;;;4.05;;
39410;SDS011;26579;43.238;23.124;2023-12-14T00:16:08;7.35;;;4.45;;
39410;SDS011;26579;43.238;23.124;2023-12-14T00:18:34;6.45;;;3.65;;
39410;SDS011;26579;43.238;23.124;2023-12-14T00:21:01;9.23;;;4.25;;
39410;SDS011;26579;43.238;23.124;2023-12-14T00:23:27;8.45;;;3.83;;
39410;SDS011;26579;43.238;23.124;2023-12-14T00:25:53;5.63;;;3.53;;
39410;SDS011;26579;43.238;23.124;2023-12-14T00:28:18;4.85;;;2.65;;
39410;SDS011;26579;43.238;23.124;2023-12-14T00:30:44;4.15;;;1.95;;
39410;SDS011;26579;43.238;23.124;2023-12-14T00:33:10;5.13;;;2.15;;
39410;SDS011;26579;43.238;23.124;2023-12-14T00:35:35;5.85;;;2.38;;
39410;SDS011;26579;43.238;23.124;2023-12-14T00:38:01;6.18;;;2.58;;
39410;SDS011;26579;43.238;23.124;2023-12-14T00:40:27;5.13;;;2.50;;
39410;SDS011;26579;43.238;23.124;2023-12-14T00:42:52;4.13;;;2.20;;
39410;SDS011;26579;43.238;23.124;2023-12-14T00:45:18;6.97;;;3.03;;
39410;SDS011;26579;43.238;23.124;2023-12-14T00:47:43;3.72;;;2.10;;
39410;SDS011;26579;43.238;23.124;2023-12-14T00:50:09;4.80;;;1.80;;
39410;SDS011;26579;43.238;23.124;2023-12-14T00:52:35;3.85;;;1.90;;
39410;SDS011;26579;43.238;23.124;2023-12-14T00:55:00;2.90;;;1.63;;
39410;SDS011;26579;43.238;23.124;2023-12-14T00:57:26;3.17;;;1.30;;
39410;SDS011;26579;43.238;23.124;2023-12-14T00:59:52;5.35;;;1.90;;
39410;SDS011;26579;43.238;23.124;2023-12-14T01:02:17;4.85;;;1.80;;
39410;SDS011;26579;43.238;23.124;2023-12-14T01:04:43;3.10;;;1.58;;
39410;SDS011;26579;43.238;23.124;2023-12-14T01:07:08;3.38;;;1.85;;
39410;SDS011;26579;43.238;23.124;2023-12-14T01:09:35;5.03;;;2.15;;
39410;SDS011;26579;43.238;23.124;2023-12-14T01:12:00;5.75;;;2.75;;
39410;SDS011;26579;43.238;23.124;2023-12-14T01:14:26;3.60;;;1.95;;
39410;SDS011;26579;43.238;23.124;2023-12-14T01:16:52;6.10;;;1.80;;
39410;SDS011;26579;43.238;23.124;2023-12-14T01:19:17;3.75;;;1.88;;
39410;SDS011;26579;43.238;23.124;2023-12-14T01:21:43;4.28;;;1.80;;
39410;SDS011;26579;43.238;23.124;2023-12-14T01:24:09;4.80;;;2.47;;
39410;SDS011;26579;43.238;23.124;2023-12-14T01:26:34;8.65;;;2.45;;
39410;SDS011;26579;43.238;23.124;2023-12-14T01:29:00;3.50;;;2.10;;
39410;SDS011;26579;43.238;23.124;2023-12-14T01:31:25;4.40;;;2.13;;
39410;SDS011;26579;43.238;23.124;2023-12-14T01:33:51;4.18;;;2.30;;
39410;SDS011;26579;43.238;23.124;2023-12-14T01:36:23;5.03;;;2.00;;
39410;SDS011;26579;43.238;23.124;2023-12-14T01:38:50;5.68;;;2.67;;
39410;SDS011;26579;43.238;23.124;2023-12-14T01:41:16;5.30;;;2.90;;
39410;SDS011;26579;43.238;23.124;2023-12-14T01:43:42;3.60;;;2.45;;
39410;SDS011;26579;43.238;23.124;2023-12-14T01:46:08;5.00;;;2.55;;
39410;SDS011;26579;43.238;23.124;2023-12-14T01:48:34;4.90;;;2.33;;
39410;SDS011;26579;43.238;23.124;2023-12-14T01:51:00;5.55;;;3.08;;
39410;SDS011;26579;43.238;23.124;2023-12-14T01:53:26;7.57;;;4.18;;
39410;SDS011;26579;43.238;23.124;2023-12-14T01:55:52;13.57;;;5.50;;
39410;SDS011;26579;43.238;23.124;2023-12-14T01:58:17;7.15;;;4.20;;
39410;SDS011;26579;43.238;23.124;2023-12-14T02:00:57;9.48;;;5.38;;
39410;SDS011;26579;43.238;23.124;2023-12-14T02:03:34;7.70;;;4.60;;
39410;SDS011;26579;43.238;23.124;2023-12-14T02:06:00;8.38;;;3.53;;
39410;SDS011;26579;43.238;23.124;2023-12-14T02:08:27;12.27;;;6.85;;
39410;SDS011;26579;43.238;23.124;2023-12-14T02:10:53;9.85;;;5.80;;
39410;SDS011;26579;43.238;23.124;2023-12-14T02:13:18;9.93;;;6.18;;
39410;SDS011;26579;43.238;23.124;2023-12-14T02:15:44;9.85;;;5.82;;
39410;SDS011;26579;43.238;23.124;2023-12-14T02:18:09;10.57;;;6.57;;
39410;SDS011;26579;43.238;23.124;2023-12-14T02:20:35;12.40;;;5.80;;
39410;SDS011;26579;43.238;23.124;2023-12-14T02:23:01;14.48;;;6.78;;
39410;SDS011;26579;43.238;23.124;2023-12-14T02:25:26;10.73;;;6.57;;
39410;SDS011;26579;43.238;23.124;2023-12-14T02:27:52;11.15;;;6.93;;
39410;SDS011;26579;43.238;23.124;2023-12-14T02:30:18;11.20;;;6.65;;
39410;SDS011;26579;43.238;23.124;2023-12-14T02:32:44;14.15;;;7.60;;
39410;SDS011;26579;43.238;23.124;2023-12-14T02:35:10;14.13;;;8.30;;
39410;SDS011;26579;43.238;23.124;2023-12-14T02:37:36;13.88;;;7.68;;
39410;SDS011;26579;43.238;23.124;2023-12-14T02:40:02;13.07;;;8.40;;
39410;SDS011;26579;43.238;23.124;2023-12-14T02:42:28;14.50;;;9.18;;
39410;SDS011;26579;43.238;23.124;2023-12-14T02:44:53;14.75;;;8.48;;
39410;SDS011;26579;43.238;23.124;2023-12-14T02:47:19;12.13;;;7.80;;
39410;SDS011;26579;43.238;23.124;2023-12-14T02:49:45;14.48;;;9.02;;
39410;SDS011;26579;43.238;23.124;2023-12-14T02:52:10;15.95;;;8.90;;
39410;SDS011;26579;43.238;23.124;2023-12-14T02:54:37;7.65;;;4.18;;
39410;SDS011;26579;43.238;23.124;2023-12-14T02:57:06;7.80;;;5.25;;
39410;SDS011;26579;43.238;23.124;2023-12-14T02:59:32;9.57;;;5.10;;
39410;SDS011;26579;43.238;23.124;2023-12-14T03:01:58;6.15;;;3.40;;
39410;SDS011;26579;43.238;23.124;2023-12-14T03:04:24;5.45;;;2.90;;
39410;SDS011;26579;43.238;23.124;2023-12-14T03:06:49;12.55;;;6.05;;
39410;SDS011;26579;43.238;23.124;2023-12-14T03:09:15;20.23;;;9.27;;
39410;SDS011;26579;43.238;23.124;2023-12-14T03:11:41;9.60;;;5.03;;
39410;SDS011;26579;43.238;23.124;2023-12-14T03:14:06;12.15;;;6.68;;
39410;SDS011;26579;43.238;23.124;2023-12-14T03:16:32;7.28;;;3.92;;
39410;SDS011;26579;43.238;23.124;2023-12-14T03:18:58;9.40;;;4.97;;
39410;SDS011;26579;43.238;23.124;2023-12-14T03:21:23;11.23;;;5.50;;
39410;SDS011;26579;43.238;23.124;2023-12-14T03:23:49;4.13;;;2.08;;
39410;SDS011;26579;43.238;23.124;2023-12-14T03:26:15;9.85;;;4.35;;
39410;SDS011;26579;43.238;23.124;2023-12-14T03:28:41;10.77;;;5.97;;
39410;SDS011;26579;43.238;23.124;2023-12-14T03:31:07;8.32;;;3.42;;
39410;SDS011;26579;43.238;23.124;2023-12-14T03:33:35;6.25;;;3.40;;
39410;SDS011;26579;43.238;23.124;2023-12-14T03:36:01;10.60;;;3.55;;
39410;SDS011;26579;43.238;23.124;2023-12-14T03:38:27;7.20;;;3.72;;
39410;SDS011;26579;43.238;23.124;2023-12-14T03:40:53;8.52;;;4.85;;
39410;SDS011;26579;43.238;23.124;2023-12-14T03:43:18;14.13;;;8.57;;
39410;SDS011;26579;43.238;23.124;2023-12-14T03:45:44;14.90;;;7.90;;
39410;SDS011;26579;43.238;23.124;2023-12-14T03:48:10;7.18;;;4.57;;
39410;SDS011;26579;43.238;23.124;2023-12-14T03:50:36;9.00;;;5.28;;
39410;SDS011;26579;43.238;23.124;2023-12-14T03:53:01;8.35;;;5.15;;
39410;SDS011;26579;43.238;23.124;2023-12-14T03:55:27;12.60;;;5.63;;
39410;SDS011;26579;43.238;23.124;2023-12-14T03:57:53;12.68;;;5.70;;
39410;SDS011;26579;43.238;23.124;2023-12-14T04:00:18;8.45;;;5.50;;
39410;SDS011;26579;43.238;23.124;2023-12-14T04:02:45;8.50;;;5.53;;
39410;SDS011;26579;43.238;23.124;2023-12-14T04:05:11;10.38;;;5.60;;
39410;SDS011;26579;43.238;23.124;2023-12-14T04:07:37;12.73;;;8.20;;
39410;SDS011;26579;43.238;23.124;2023-12-14T04:10:03;18.27;;;11.02;;
39410;SDS011;26579;43.238;23.124;2023-12-14T04:12:29;20.52;;;11.95;;
39410;SDS011;26579;43.238;23.124;2023-12-14T04:14:54;24.45;;;13.90;;
39410;SDS011;26579;43.238;23.124;2023-12-14T04:17:20;27.90;;;15.40;;
39410;SDS011;26579;43.238;23.124;2023-12-14T04:19:45;27.67;;;16.05;;
39410;SDS011;26579;43.238;23.124;2023-12-14T04:22:11;26.05;;;15.05;;
39410;SDS011;26579;43.238;23.124;2023-12-14T04:24:37;31.05;;;15.98;;
39410;SDS011;26579;43.238;23.124;2023-12-14T04:27:02;31.15;;;16.40;;
39410;SDS011;26579;43.238;23.124;2023-12-14T04:29:28;29.75;;;16.23;;
39410;SDS011;26579;43.238;23.124;2023-12-14T04:31:54;35.60;;;17.98;;
39410;SDS011;26579;43.238;23.124;2023-12-14T04:34:19;33.30;;;16.50;;
39410;SDS011;26579;43.238;23.124;2023-12-14T04:36:45;35.22;;;18.48;;
39410;SDS011;26579;43.238;23.124;2023-12-14T04:39:11;34.75;;;15.70;;
39410;SDS011;26579;43.238;23.124;2023-12-14T04:41:37;33.33;;;17.23;;
39410;SDS011;26579;43.238;23.124;2023-12-14T04:44:02;31.88;;;16.48;;
39410;SDS011;26579;43.238;23.124;2023-12-14T04:46:28;36.75;;;16.52;;
39410;SDS011;26579;43.238;23.124;2023-12-14T04:48:54;35.75;;;16.63;;
39410;SDS011;26579;43.238;23.124;2023-12-14T04:51:20;41.33;;;16.58;;
39410;SDS011;26579;43.238;23.124;2023-12-14T04:53:46;35.63;;;14.82;;
39410;SDS011;26579;43.238;23.124;2023-12-14T04:56:12;36.72;;;16.02;;
39410;SDS011;26579;43.238;23.124;2023-12-14T04:58:41;35.95;;;15.20;;
39410;SDS011;26579;43.238;23.124;2023-12-14T05:01:07;33.25;;;14.68;;
39410;SDS011;26579;43.238;23.124;2023-12-14T05:03:34;27.55;;;14.07;;
39410;SDS011;26579;43.238;23.124;2023-12-14T05:06:00;32.10;;;15.48;;
39410;SDS011;26579;43.238;23.124;2023-12-14T05:08:26;36.30;;;16.35;;
39410;SDS011;26579;43.238;23.124;2023-12-14T05:10:52;35.28;;;14.77;;
39410;SDS011;26579;43.238;23.124;2023-12-14T05:13:18;35.33;;;14.60;;
39410;SDS011;26579;43.238;23.124;2023-12-14T05:15:43;34.80;;;16.75;;
39410;SDS011;26579;43.238;23.124;2023-12-14T05:18:09;35.90;;;17.23;;
39410;SDS011;26579;43.238;23.124;2023-12-14T05:20:35;36.60;;;17.00;;
39410;SDS011;26579;43.238;23.124;2023-12-14T05:23:01;34.38;;;15.65;;
39410;SDS011;26579;43.238;23.124;2023-12-14T05:25:27;33.58;;;15.35;;
39410;SDS011;26579;43.238;23.124;2023-12-14T05:27:52;36.78;;;17.25;;
39410;SDS011;26579;43.238;23.124;2023-12-14T05:30:18;36.25;;;16.77;;
39410;SDS011;26579;43.238;23.124;2023-12-14T05:32:44;36.38;;;16.00;;
39410;SDS011;26579;43.238;23.124;2023-12-14T05:35:10;40.05;;;19.38;;
39410;SDS011;26579;43.238;23.124;2023-12-14T05:37:36;45.15;;;19.70;;
39410;SDS011;26579;43.238;23.124;2023-12-14T05:40:03;49.05;;;21.33;;
39410;SDS011;26579;43.238;23.124;2023-12-14T05:42:29;50.67;;;26.25;;
39410;SDS011;26579;43.238;23.124;2023-12-14T05:44:55;49.08;;;22.30;;
39410;SDS011;26579;43.238;23.124;2023-12-14T05:47:20;62.55;;;32.25;;
39410;SDS011;26579;43.238;23.124;2023-12-14T05:49:46;56.22;;;27.08;;
39410;SDS011;26579;43.238;23.124;2023-12-14T05:52:12;45.45;;;22.33;;
39410;SDS011;26579;43.238;23.124;2023-12-14T05:54:38;44.67;;;19.83;;
39410;SDS011;26579;43.238;23.124;2023-12-14T05:57:05;44.25;;;23.38;;
39410;SDS011;26579;43.238;23.124;2023-12-14T05:59:31;43.22;;;21.27;;
39410;SDS011;26579;43.238;23.124;2023-12-14T06:01:57;53.30;;;27.63;;
39410;SDS011;26579;43.238;23.124;2023-12-14T06:04:24;48.47;;;23.45;;
39410;SDS011;26579;43.238;23.124;2023-12-14T06:06:49;53.58;;;26.77;;
39410;SDS011;26579;43.238;23.124;2023-12-14T06:09:15;50.67;;;23.42;;
39410;SDS011;26579;43.238;23.124;2023-12-14T06:11:41;43.67;;;20.35;;
39410;SDS011;26579;43.238;23.124;2023-12-14T06:14:06;48.58;;;22.92;;
39410;SDS011;26579;43.238;23.124;2023-12-14T06:16:32;46.92;;;22.73;;
39410;SDS011;26579;43.238;23.124;2023-12-14T06:18:58;52.55;;;25.25;;
39410;SDS011;26579;43.238;23.124;2023-12-14T06:21:23;47.03;;;23.17;;
39410;SDS011;26579;43.238;23.124;2023-12-14T06:23:49;48.17;;;23.25;;
39410;SDS011;26579;43.238;23.124;2023-12-14T06:26:16;51.45;;;24.38;;
39410;SDS011;26579;43.238;23.124;2023-12-14T06:28:42;45.97;;;23.75;;
39410;SDS011;26579;43.238;23.124;2023-12-14T06:31:11;47.97;;;26.05;;
39410;SDS011;26579;43.238;23.124;2023-12-14T06:33:38;50.70;;;24.60;;
39410;SDS011;26579;43.238;23.124;2023-12-14T06:36:03;46.92;;;24.67;;
39410;SDS011;26579;43.238;23.124;2023-12-14T06:38:29;46.10;;;22.95;;
39410;SDS011;26579;43.238;23.124;2023-12-14T06:40:55;48.47;;;23.35;;
39410;SDS011;26579;43.238;23.124;2023-12-14T06:43:21;54.58;;;31.05;;
39410;SDS011;26579;43.238;23.124;2023-12-14T06:45:46;39.63;;;21.83;;
39410;SDS011;26579;43.238;23.124;2023-12-14T06:48:12;44.55;;;22.95;;
39410;SDS011;26579;43.238;23.124;2023-12-14T06:50:37;44.80;;;24.25;;
39410;SDS011;26579;43.238;23.124;2023-12-14T06:53:03;38.50;;;20.73;;
39410;SDS011;26579;43.238;23.124;2023-12-14T06:55:29;42.40;;;21.25;;
39410;SDS011;26579;43.238;23.124;2023-12-14T06:57:54;31.48;;;18.15;;
39410;SDS011;26579;43.238;23.124;2023-12-14T07:00:20;33.72;;;16.67;;
39410;SDS011;26579;43.238;23.124;2023-12-14T07:02:46;31.98;;;18.92;;
39410;SDS011;26579;43.238;23.124;2023-12-14T07:05:11;40.90;;;21.75;;
39410;SDS011;26579;43.238;23.124;2023-12-14T07:07:37;35.45;;;19.08;;
39410;SDS011;26579;43.238;23.124;2023-12-14T07:10:03;47.08;;;23.77;;
39410;SDS011;26579;43.238;23.124;2023-12-14T07:12:29;47.65;;;25.65;;
39410;SDS011;26579;43.238;23.124;2023-12-14T07:14:55;38.30;;;20.38;;
39410;SDS011;26579;43.238;23.124;2023-12-14T07:17:20;40.92;;;21.67;;
39410;SDS011;26579;43.238;23.124;2023-12-14T07:19:46;45.58;;;23.38;;
39410;SDS011;26579;43.238;23.124;2023-12-14T07:22:12;35.70;;;19.45;;
39410;SDS011;26579;43.238;23.124;2023-12-14T07:24:37;35.95;;;19.83;;
39410;SDS011;26579;43.238;23.124;2023-12-14T07:27:03;34.42;;;19.42;;
39410;SDS011;26579;43.238;23.124;2023-12-14T07:29:29;35.65;;;20.45;;
39410;SDS011;26579;43.238;23.124;2023-12-14T07:31:54;39.20;;;21.13;;
39410;SDS011;26579;43.238;23.124;2023-12-14T07:34:20;36.08;;;19.27;;
39410;SDS011;26579;43.238;23.124;2023-12-14T07:36:46;33.58;;;17.25;;
39410;SDS011;26579;43.238;23.124;2023-12-14T07:39:11;29.15;;;15.80;;
39410;SDS011;26579;43.238;23.124;2023-12-14T07:41:37;34.63;;;19.30;;
39410;SDS011;26579;43.238;23.124;2023-12-14T07:44:03;40.90;;;24.08;;
39410;SDS011;26579;43.238;23.124;2023-12-14T07:46:29;36.42;;;19.88;;
39410;SDS011;26579;43.238;23.124;2023-12-14T07:48:54;32.80;;;17.15;;
39410;SDS011;26579;43.238;23.124;2023-12-14T07:51:20;22.40;;;14.02;;
39410;SDS011;26579;43.238;23.124;2023-12-14T07:53:46;27.50;;;15.75;;
39410;SDS011;26579;43.238;23.124;2023-12-14T07:56:12;29.15;;;16.63;;
39410;SDS011;26579;43.238;23.124;2023-12-14T07:58:37;45.03;;;26.75;;
39410;SDS011;26579;43.238;23.124;2023-12-14T08:01:03;60.53;;;32.20;;
39410;SDS011;26579;43.238;23.124;2023-12-14T08:03:29;72.38;;;34.47;;
39410;SDS011;26579;43.238;23.124;2023-12-14T08:05:54;62.85;;;33.97;;
39410;SDS011;26579;43.238;23.124;2023-12-14T08:08:20;44.60;;;27.00;;
39410;SDS011;26579;43.238;23.124;2023-12-14T08:10:46;57.88;;;34.22;;
39410;SDS011;26579;43.238;23.124;2023-12-14T08:13:11;35.47;;;20.08;;
39410;SDS011;26579;43.238;23.124;2023-12-14T08:15:37;35.63;;;20.95;;
39410;SDS011;26579;43.238;23.124;2023-12-14T08:18:03;35.80;;;19.40;;
39410;SDS011;26579;43.238;23.124;2023-12-14T08:20:28;43.65;;;27.55;;
39410;SDS011;26579;43.238;23.124;2023-12-14T08:22:54;62.05;;;37.47;;
39410;SDS011;26579;43.238;23.124;2023-12-14T08:25:19;68.65;;;41.13;;
39410;SDS011;26579;43.238;23.124;2023-12-14T08:27:45;81.32;;;46.75;;
39410;SDS011;26579;43.238;23.124;2023-12-14T08:30:11;44.83;;;27.52;;
39410;SDS011;26579;43.238;23.124;2023-12-14T08:32:37;54.13;;;30.70;;
39410;SDS011;26579;43.238;23.124;2023-12-14T08:35:03;41.17;;;23.63;;
39410;SDS011;26579;43.238;23.124;2023-12-14T08:37:29;32.92;;;22.77;;
39410;SDS011;26579;43.238;23.124;2023-12-14T08:39:54;27.27;;;19.10;;
39410;SDS011;26579;43.238;23.124;2023-12-14T08:42:20;23.42;;;15.88;;
39410;SDS011;26579;43.238;23.124;2023-12-14T08:44:46;21.73;;;15.27;;
39410;SDS011;26579;43.238;23.124;2023-12-14T08:47:12;18.73;;;13.23;;
39410;SDS011;26579;43.238;23.124;2023-12-14T08:49:37;16.77;;;9.15;;
39410;SDS011;26579;43.238;23.124;2023-12-14T08:52:03;19.27;;;8.25;;
39410;SDS011;26579;43.238;23.124;2023-12-14T08:54:29;15.52;;;9.52;;
39410;SDS011;26579;43.238;23.124;2023-12-14T08:56:55;10.57;;;6.43;;
39410;SDS011;26579;43.238;23.124;2023-12-14T08:59:21;11.00;;;5.47;;
39410;SDS011;26579;43.238;23.124;2023-12-14T09:01:46;8.88;;;5.78;;
39410;SDS011;26579;43.238;23.124;2023-12-14T09:04:12;8.15;;;4.93;;
39410;SDS011;26579;43.238;23.124;2023-12-14T09:06:37;13.10;;;7.18;;
39410;SDS011;26579;43.238;23.124;2023-12-14T09:09:03;10.20;;;5.95;;
39410;SDS011;26579;43.238;23.124;2023-12-14T09:11:29;11.68;;;7.25;;
39410;SDS011;26579;43.238;23.124;2023-12-14T09:13:54;16.20;;;8.88;;
39410;SDS011;26579;43.238;23.124;2023-12-14T09:16:22;14.50;;;8.32;;
39410;SDS011;26579;43.238;23.124;2023-12-14T09:18:47;15.13;;;9.68;;
39410;SDS011;26579;43.238;23.124;2023-12-14T09:21:13;40.47;;;26.92;;
39410;SDS011;26579;43.238;23.124;2023-12-14T09:23:38;28.80;;;16.98;;
39410;SDS011;26579;43.238;23.124;2023-12-14T09:26:04;39.85;;;21.23;;
39410;SDS011;26579;43.238;23.124;2023-12-14T09:28:30;30.73;;;14.82;;
39410;SDS011;26579;43.238;23.124;2023-12-14T09:30:56;26.40;;;13.85;;
39410;SDS011;26579;43.238;23.124;2023-12-14T09:33:21;20.65;;;11.25;;
39410;SDS011;26579;43.238;23.124;2023-12-14T09:35:47;19.27;;;11.20;;
39410;SDS011;26579;43.238;23.124;2023-12-14T09:38:12;21.92;;;11.57;;
39410;SDS011;26579;43.238;23.124;2023-12-14T09:40:38;19.05;;;13.30;;
39410;SDS011;26579;43.238;23.124;2023-12-14T09:43:04;19.27;;;13.15;;
39410;SDS011;26579;43.238;23.124;2023-12-14T09:45:30;25.80;;;14.90;;
39410;SDS011;26579;43.238;23.124;2023-12-14T09:47:56;29.05;;;18.92;;
39410;SDS011;26579;43.238;23.124;2023-12-14T09:50:24;30.27;;;18.98;;
39410;SDS011;26579;43.238;23.124;2023-12-14T09:52:50;33.40;;;21.98;;
39410;SDS011;26579;43.238;23.124;2023-12-14T09:55:17;38.50;;;22.98;;
39410;SDS011;26579;43.238;23.124;2023-12-14T09:57:43;33.17;;;21.25;;
39410;SDS011;26579;43.238;23.124;2023-12-14T10:00:09;47.00;;;23.20;;
39410;SDS011;26579;43.238;23.124;2023-12-14T10:02:36;41.10;;;25.50;;
39410;SDS011;26579;43.238;23.124;2023-12-14T10:05:02;28.92;;;17.35;;
39410;SDS011;26579;43.238;23.124;2023-12-14T10:07:29;25.38;;;15.27;;
39410;SDS011;26579;43.238;23.124;2023-12-14T10:10:00;14.57;;;9.10;;
39410;SDS011;26579;43.238;23.124;2023-12-14T10:12:50;8.82;;;5.60;;
39410;SDS011;26579;43.238;23.124;2023-12-14T10:15:16;7.20;;;4.45;;
39410;SDS011;26579;43.238;23.124;2023-12-14T10:17:42;5.82;;;3.95;;
39410;SDS011;26579;43.238;23.124;2023-12-14T10:20:08;9.15;;;3.80;;
39410;SDS011;26579;43.238;23.124;2023-12-14T10:22:33;10.20;;;4.68;;
39410;SDS011;26579;43.238;23.124;2023-12-14T10:25:00;11.93;;;6.57;;
39410;SDS011;26579;43.238;23.124;2023-12-14T10:27:26;16.70;;;10.63;;
39410;SDS011;26579;43.238;23.124;2023-12-14T10:29:51;7.45;;;4.70;;
39410;SDS011;26579;43.238;23.124;2023-12-14T10:32:17;7.53;;;4.40;;
39410;SDS011;26579;43.238;23.124;2023-12-14T10:34:45;7.25;;;4.65;;
39410;SDS011;26579;43.238;23.124;2023-12-14T10:37:11;9.60;;;5.50;;
39410;SDS011;26579;43.238;23.124;2023-12-14T10:39:38;6.82;;;4.50;;
39410;SDS011;26579;43.238;23.124;2023-12-14T10:42:08;6.97;;;3.60;;
39410;SDS011;26579;43.238;23.124;2023-12-14T10:44:35;5.93;;;3.67;;
39410;SDS011;26579;43.238;23.124;2023-12-14T10:47:03;7.00;;;3.97;;
39410;SDS011;26579;43.238;23.124;2023-12-14T10:49:29;12.18;;;6.40;;
39410;SDS011;26579;43.238;23.124;2023-12-14T10:51:56;15.52;;;8.45;;
39410;SDS011;26579;43.238;23.124;2023-12-14T10:54:24;9.65;;;5.00;;
39410;SDS011;26579;43.238;23.124;2023-12-14T10:56:55;21.77;;;11.43;;
39410;SDS011;26579;43.238;23.124;2023-12-14T10:59:21;19.55;;;11.23;;
39410;SDS011;26579;43.238;23.124;2023-12-14T11:01:54;16.77;;;9.30;;
39410;SDS011;26579;43.238;23.124;2023-12-14T11:04:21;20.85;;;13.00;;
39410;SDS011;26579;43.238;23.124;2023-12-14T11:06:47;23.25;;;13.27;;
39410;SDS011;26579;43.238;23.124;2023-12-14T11:09:13;38.83;;;20.77;;
39410;SDS011;26579;43.238;23.124;2023-12-14T11:11:42;47.00;;;26.15;;
39410;SDS011;26579;43.238;23.124;2023-12-14T11:14:13;38.33;;;20.80;;
39410;SDS011;26579;43.238;23.124;2023-12-14T11:16:39;31.40;;;17.40;;
39410;SDS011;26579;43.238;23.124;2023-12-14T11:21:46;27.77;;;15.65;;
39410;SDS011;26579;43.238;23.124;2023-12-14T11:24:18;25.50;;;13.27;;
39410;SDS011;26579;43.238;23.124;2023-12-14T11:26:44;18.02;;;11.18;;
39410;SDS011;26579;43.238;23.124;2023-12-14T11:29:10;22.83;;;13.00;;
39410;SDS011;26579;43.238;23.124;2023-12-14T11:31:37;23.45;;;13.98;;
39410;SDS011;26579;43.238;23.124;2023-12-14T11:34:03;27.10;;;17.83;;
39410;SDS011;26579;43.238;23.124;2023-12-14T11:36:30;25.20;;;15.10;;
39410;SDS011;26579;43.238;23.124;2023-12-14T11:38:55;21.75;;;14.00;;
39410;SDS011;26579;43.238;23.124;2023-12-14T11:41:21;23.25;;;15.23;;
39410;SDS011;26579;43.238;23.124;2023-12-14T11:43:47;25.50;;;16.67;;
39410;SDS011;26579;43.238;23.124;2023-12-14T11:46:13;50.83;;;32.13;;
39410;SDS011;26579;43.238;23.124;2023-12-14T11:48:39;59.33;;;37.90;;
39410;SDS011;26579;43.238;23.124;2023-12-14T11:51:05;70.65;;;44.67;;
39410;SDS011;26579;43.238;23.124;2023-12-14T11:53:31;71.95;;;43.10;;
39410;SDS011;26579;43.238;23.124;2023-12-14T11:55:56;48.40;;;31.20;;
39410;SDS011;26579;43.238;23.124;2023-12-14T11:58:22;45.20;;;29.95;;
39410;SDS011;26579;43.238;23.124;2023-12-14T12:00:50;51.22;;;25.85;;
39410;SDS011;26579;43.238;23.124;2023-12-14T12:03:16;36.58;;;23.33;;
39410;SDS011;26579;43.238;23.124;2023-12-14T12:05:44;40.03;;;25.15;;
39410;SDS011;26579;43.238;23.124;2023-12-14T12:08:11;34.17;;;21.95;;
39410;SDS011;26579;43.238;23.124;2023-12-14T12:10:41;63.38;;;35.63;;
39410;SDS011;26579;43.238;23.124;2023-12-14T12:13:11;72.25;;;42.97;;
39410;SDS011;26579;43.238;23.124;2023-12-14T12:15:38;66.82;;;39.17;;
39410;SDS011;26579;43.238;23.124;2023-12-14T12:18:08;78.75;;;43.92;;
39410;SDS011;26579;43.238;23.124;2023-12-14T12:20:35;77.90;;;42.15;;
39410;SDS011;26579;43.238;23.124;2023-12-14T12:23:00;35.40;;;19.85;;
39410;SDS011;26579;43.238;23.124;2023-12-14T12:25:27;24.58;;;13.57;;
39410;SDS011;26579;43.238;23.124;2023-12-14T12:27:56;22.45;;;14.07;;
39410;SDS011;26579;43.238;23.124;2023-12-14T12:30:22;29.23;;;16.23;;
39410;SDS011;26579;43.238;23.124;2023-12-14T12:32:48;33.80;;;18.48;;
39410;SDS011;26579;43.238;23.124;2023-12-14T12:35:15;41.60;;;24.00;;
39410;SDS011;26579;43.238;23.124;2023-12-14T12:37:40;39.33;;;22.58;;
39410;SDS011;26579;43.238;23.124;2023-12-14T12:40:06;24.30;;;14.90;;
39410;SDS011;26579;43.238;23.124;2023-12-14T12:42:32;21.48;;;13.98;;
39410;SDS011;26579;43.238;23.124;2023-12-14T12:44:58;31.10;;;16.50;;
39410;SDS011;26579;43.238;23.124;2023-12-14T12:47:24;24.90;;;14.73;;
39410;SDS011;26579;43.238;23.124;2023-12-14T12:49:51;19.23;;;11.52;;
39410;SDS011;26579;43.238;23.124;2023-12-14T12:52:17;17.67;;;11.70;;
39410;SDS011;26579;43.238;23.124;2023-12-14T12:54:43;13.90;;;8.60;;
39410;SDS011;26579;43.238;23.124;2023-12-14T12:57:09;11.00;;;7.32;;
39410;SDS011;26579;43.238;23.124;2023-12-14T12:59:35;10.35;;;6.43;;
39410;SDS011;26579;43.238;23.124;2023-12-14T13:02:02;15.13;;;7.90;;
39410;SDS011;26579;43.238;23.124;2023-12-14T13:04:28;12.18;;;9.27;;
39410;SDS011;26579;43.238;23.124;2023-12-14T13:06:53;11.95;;;7.30;;
39410;SDS011;26579;43.238;23.124;2023-12-14T13:09:19;27.38;;;18.85;;
39410;SDS011;26579;43.238;23.124;2023-12-14T13:11:46;43.60;;;29.35;;
39410;SDS011;26579;43.238;23.124;2023-12-14T13:14:12;40.78;;;28.05;;
39410;SDS011;26579;43.238;23.124;2023-12-14T13:16:44;39.65;;;26.05;;
39410;SDS011;26579;43.238;23.124;2023-12-14T13:19:10;41.65;;;26.63;;
39410;SDS011;26579;43.238;23.124;2023-12-14T13:21:35;53.08;;;32.78;;
39410;SDS011;26579;43.238;23.124;2023-12-14T13:24:02;47.40;;;30.02;;
39410;SDS011;26579;43.238;23.124;2023-12-14T13:26:28;64.75;;;39.40;;
39410;SDS011;26579;43.238;23.124;2023-12-14T13:28:54;62.22;;;39.22;;
39410;SDS011;26579;43.238;23.124;2023-12-14T13:31:20;68.47;;;42.65;;
39410;SDS011;26579;43.238;23.124;2023-12-14T13:33:46;71.57;;;44.22;;
39410;SDS011;26579;43.238;23.124;2023-12-14T13:36:13;46.03;;;28.25;;
39410;SDS011;26579;43.238;23.124;2023-12-14T13:38:40;41.40;;;24.65;;
39410;SDS011;26579;43.238;23.124;2023-12-14T13:41:06;34.72;;;22.42;;
39410;SDS011;26579;43.238;23.124;2023-12-14T13:43:33;35.70;;;22.10;;
39410;SDS011;26579;43.238;23.124;2023-12-14T13:46:01;25.67;;;16.85;;
39410;SDS011;26579;43.238;23.124;2023-12-14T13:48:27;22.48;;;15.50;;
39410;SDS011;26579;43.238;23.124;2023-12-14T13:50:53;19.48;;;13.23;;
39410;SDS011;26579;43.238;23.124;2023-12-14T13:53:19;17.50;;;10.48;;
39410;SDS011;26579;43.238;23.124;2023-12-14T13:55:45;17.15;;;10.00;;
39410;SDS011;26579;43.238;23.124;2023-12-14T13:58:10;12.93;;;8.48;;
39410;SDS011;26579;43.238;23.124;2023-12-14T14:00:36;15.38;;;10.02;;
39410;SDS011;26579;43.238;23.124;2023-12-14T14:03:02;14.20;;;8.73;;
39410;SDS011;26579;43.238;23.124;2023-12-14T14:05:28;13.85;;;8.90;;
39410;SDS011;26579;43.238;23.124;2023-12-14T14:07:53;18.08;;;11.25;;
39410;SDS011;26579;43.238;23.124;2023-12-14T14:10:19;20.45;;;12.25;;
39410;SDS011;26579;43.238;23.124;2023-12-14T14:12:45;44.40;;;24.90;;